Aviation Digital Data Service (ADDS)

Output produced by METARs form (1516 UTC 20 March 2019)
found at http://www.aviationweather.gov/metar/data/
 
Forecast for: OJAQ (AQABA INTL AIRPO, JO)
Text: TAF OJAQ 201100Z 2012/2118 36014KT 7000 NSC
Forecast period: 1200 UTC 20 March 2019 to 1800 UTC 21 March 2019
Forecast type: FROM: standard forecast or significant change
Winds: from the N (360 degrees) at 16 MPH (14 knots; 7.2 m/s)
Visibility: 4 miles (7 km)
Ceiling: unknown
Clouds: missing
Weather: no significant weather forecast for this period
Text: PROB30 2110/2116 4000 DU
Forecast period: 1000 to 1600 UTC 21 March 2019
Forecast type: PROBABLE: 30 percent likelihood of the following during this time
Visibility: 2.49 miles (4.01 km)
Ceiling: unknown
Clouds: missing
Weather: DU  (widespread dust)